createdAt,value
2018-08-10T00:00:35.153Z,2.00
2018-08-10T00:03:02.486Z,1.63
2018-08-10T00:05:29.819Z,2.40
2018-08-10T00:07:57.286Z,2.23
2018-08-10T00:10:24.614Z,1.60
2018-08-10T00:12:51.873Z,2.10
2018-08-10T00:15:19.270Z,1.67
2018-08-10T00:17:46.594Z,2.87
2018-08-10T00:20:14.862Z,2.00
2018-08-10T00:22:42.674Z,2.00
2018-08-10T00:25:13.478Z,2.40
2018-08-10T00:27:41.441Z,2.50
2018-08-10T00:30:12.898Z,2.57
2018-08-10T00:32:41.249Z,1.87
2018-08-10T00:35:09.439Z,1.67
2018-08-10T00:37:36.798Z,2.67
2018-08-10T00:40:04.954Z,4.57
2018-08-10T00:42:32.394Z,1.83
2018-08-10T00:44:59.914Z,3.03
2018-08-10T00:47:27.321Z,1.70
2018-08-10T00:49:54.667Z,2.37
2018-08-10T00:52:22.014Z,2.40
2018-08-10T00:54:49.302Z,1.83
2018-08-10T00:57:16.566Z,1.90
2018-08-10T00:59:43.858Z,2.10
2018-08-10T01:02:11.134Z,1.80
2018-08-10T01:04:38.494Z,2.00
2018-08-10T01:07:05.843Z,1.73
2018-08-10T01:09:33.334Z,1.60
2018-08-10T01:12:00.783Z,2.20
2018-08-10T01:14:28.218Z,1.70
2018-08-10T01:16:55.621Z,2.00
2018-08-10T01:19:23.039Z,3.20
2018-08-10T01:21:50.377Z,2.30
2018-08-10T01:24:17.729Z,1.53
2018-08-10T01:26:45.046Z,2.37
2018-08-10T01:29:12.414Z,4.30
2018-08-10T01:31:39.838Z,1.27
2018-08-10T01:34:07.335Z,1.60
2018-08-10T01:36:34.844Z,1.97
2018-08-10T01:39:02.297Z,2.23
2018-08-10T01:41:29.650Z,1.70
2018-08-10T01:43:57.113Z,1.67
2018-08-10T01:46:24.444Z,1.67
2018-08-10T01:48:51.806Z,1.50
2018-08-10T01:51:19.153Z,1.63
2018-08-10T01:53:46.535Z,2.27
2018-08-10T01:56:13.869Z,1.67
2018-08-10T01:58:41.434Z,1.33
2018-08-10T02:01:08.794Z,1.63
2018-08-10T02:03:36.340Z,1.70
2018-08-10T02:06:03.830Z,1.87
2018-08-10T02:08:31.153Z,1.37
2018-08-10T02:10:58.638Z,1.40
2018-08-10T02:13:26.034Z,1.50
2018-08-10T02:15:53.576Z,2.17
2018-08-10T02:18:20.933Z,1.80
2018-08-10T02:20:48.315Z,3.57
2018-08-10T02:23:15.642Z,1.50
2018-08-10T02:25:43.004Z,1.40
2018-08-10T02:28:10.722Z,2.37
2018-08-10T02:30:38.070Z,1.70
2018-08-10T02:33:05.446Z,1.53
2018-08-10T02:35:32.891Z,4.60
2018-08-10T02:38:00.218Z,8.40
2018-08-10T02:40:27.554Z,3.20
2018-08-10T02:42:55.059Z,2.03
2018-08-10T02:45:22.450Z,1.07
2018-08-10T02:47:50.198Z,1.20
2018-08-10T02:50:17.485Z,1.13
2018-08-10T02:52:45.416Z,2.83
2018-08-10T02:55:13.084Z,2.73
2018-08-10T02:57:40.790Z,2.63
2018-08-10T03:00:10.161Z,2.50
2018-08-10T03:02:37.500Z,1.00
2018-08-10T03:05:05.386Z,3.40
2018-08-10T03:07:32.703Z,1.87
2018-08-10T03:10:00.000Z,3.00
2018-08-10T03:12:27.274Z,1.10
2018-08-10T03:14:54.555Z,1.30
2018-08-10T03:17:21.834Z,1.10
2018-08-10T03:19:49.108Z,7.53
2018-08-10T03:22:16.385Z,3.73
2018-08-10T03:24:43.585Z,1.77
2018-08-10T03:27:10.848Z,1.00
2018-08-10T03:29:38.191Z,1.00
2018-08-10T03:32:05.601Z,1.80
2018-08-10T03:34:32.828Z,1.67
2018-08-10T03:37:00.378Z,1.10
2018-08-10T03:39:27.700Z,2.90
2018-08-10T03:41:54.966Z,1.93
2018-08-10T03:44:22.216Z,1.13
2018-08-10T03:46:49.569Z,1.37
2018-08-10T03:49:16.808Z,1.00
2018-08-10T03:51:44.029Z,1.00
2018-08-10T03:54:11.548Z,2.60
2018-08-10T03:56:38.816Z,2.80
2018-08-10T03:59:06.131Z,1.00
2018-08-10T04:01:33.400Z,1.20
2018-08-10T04:04:00.764Z,3.30
2018-08-10T04:06:28.108Z,2.57
2018-08-10T04:08:55.389Z,1.30
2018-08-10T04:11:22.617Z,1.20
2018-08-10T04:13:50.040Z,1.13
2018-08-10T04:16:17.359Z,1.13
2018-08-10T04:18:44.659Z,3.33
2018-08-10T04:21:11.887Z,2.30
2018-08-10T04:23:39.524Z,1.50
2018-08-10T04:26:06.935Z,1.37
2018-08-10T04:28:34.214Z,1.80
2018-08-10T04:31:01.516Z,1.50
2018-08-10T04:33:29.025Z,2.27
2018-08-10T04:35:56.268Z,1.27
2018-08-10T04:38:23.859Z,1.50
2018-08-10T04:40:51.193Z,2.37
2018-08-10T04:43:18.469Z,1.30
2018-08-10T04:45:45.716Z,1.57
2018-08-10T04:48:13.026Z,1.70
2018-08-10T04:50:40.675Z,1.70
2018-08-10T04:53:08.136Z,1.33
2018-08-10T04:55:35.389Z,1.40
2018-08-10T04:58:02.888Z,2.60
2018-08-10T05:00:30.182Z,2.70
2018-08-10T05:02:57.529Z,1.90
2018-08-10T05:05:24.877Z,1.13
2018-08-10T05:07:52.157Z,3.27
2018-08-10T05:10:19.500Z,1.53
2018-08-10T05:12:46.740Z,1.23
2018-08-10T05:15:13.961Z,1.17
2018-08-10T05:17:41.237Z,1.70
2018-08-10T05:20:09.950Z,2.03
2018-08-10T05:22:37.305Z,2.80
2018-08-10T05:25:04.714Z,2.07
2018-08-10T05:27:32.052Z,6.80
2018-08-10T05:29:59.406Z,1.70
2018-08-10T05:32:26.653Z,3.73
2018-08-10T05:34:54.346Z,4.03
2018-08-10T05:37:21.625Z,1.80
2018-08-10T05:39:48.868Z,4.13
2018-08-10T05:42:16.430Z,2.00
2018-08-10T05:44:43.748Z,4.87
2018-08-10T05:47:10.980Z,4.53
2018-08-10T05:49:38.646Z,2.03
2018-08-10T05:52:06.065Z,1.50
2018-08-10T05:54:33.356Z,2.60
2018-08-10T05:57:00.685Z,2.33
2018-08-10T05:59:27.995Z,2.60
2018-08-10T06:01:55.336Z,1.97
2018-08-10T06:04:22.577Z,1.90
2018-08-10T06:06:49.900Z,1.83
2018-08-10T06:09:17.175Z,1.93
2018-08-10T06:11:44.656Z,1.87
2018-08-10T06:14:12.793Z,2.33
2018-08-10T06:16:40.311Z,2.50
2018-08-10T06:19:07.649Z,2.10
2018-08-10T06:21:35.022Z,2.00
2018-08-10T06:24:02.524Z,3.03
2018-08-10T06:26:29.748Z,2.10
2018-08-10T06:28:57.320Z,1.83
2018-08-10T06:31:24.631Z,1.30
2018-08-10T06:33:51.899Z,2.83
2018-08-10T06:36:19.188Z,1.90
2018-08-10T06:38:46.442Z,2.37
2018-08-10T06:41:13.704Z,4.23
2018-08-10T06:43:41.237Z,3.83
2018-08-10T06:46:08.624Z,2.17
2018-08-10T06:48:35.945Z,1.60
2018-08-10T06:51:03.292Z,2.27
2018-08-10T06:53:30.834Z,2.70
2018-08-10T06:55:58.266Z,2.63
2018-08-10T06:58:25.471Z,3.33
2018-08-10T07:00:52.878Z,1.70
2018-08-10T07:03:20.124Z,1.70
2018-08-10T07:05:47.364Z,1.20
2018-08-10T07:08:14.591Z,2.00
2018-08-10T07:10:41.864Z,1.60
2018-08-10T07:13:09.262Z,1.80
2018-08-10T07:15:36.562Z,2.30
2018-08-10T07:18:04.208Z,1.67
2018-08-10T07:20:31.511Z,2.10
2018-08-10T07:22:59.017Z,3.07
2018-08-10T07:25:26.357Z,1.90
2018-08-10T07:27:53.597Z,2.90
2018-08-10T07:30:21.209Z,1.80
2018-08-10T07:32:48.568Z,1.53
2018-08-10T07:35:15.808Z,2.27
2018-08-10T07:37:43.060Z,2.17
2018-08-10T07:40:10.309Z,2.50
2018-08-10T07:42:37.857Z,2.83
2018-08-10T07:45:05.373Z,2.13
2018-08-10T07:47:32.807Z,1.67
2018-08-10T07:50:00.219Z,2.67
2018-08-10T07:52:27.642Z,2.40
2018-08-10T07:54:54.972Z,1.50
2018-08-10T07:57:22.354Z,2.07
2018-08-10T07:59:49.665Z,1.27
2018-08-10T08:02:16.944Z,1.43
2018-08-10T08:04:44.324Z,2.00
2018-08-10T08:07:11.897Z,3.60
2018-08-10T08:09:39.325Z,4.03
2018-08-10T08:12:06.581Z,2.20
2018-08-10T08:14:33.928Z,1.63
2018-08-10T08:17:01.504Z,2.27
2018-08-10T08:19:29.150Z,1.63
2018-08-10T08:22:12.329Z,1.30
2018-08-10T08:24:40.492Z,1.90
2018-08-10T08:27:07.790Z,2.50
2018-08-10T08:29:35.827Z,3.00
2018-08-10T08:32:03.389Z,2.27
2018-08-10T08:34:30.885Z,3.33
2018-08-10T08:36:58.463Z,1.77
2018-08-10T08:39:37.318Z,2.00
2018-08-10T08:42:04.623Z,1.70
2018-08-10T08:44:54.221Z,6.30
2018-08-10T08:47:21.584Z,1.60
2018-08-10T08:49:48.868Z,3.03
2018-08-10T08:52:16.117Z,2.00
2018-08-10T08:55:06.464Z,2.53
2018-08-10T08:57:34.581Z,1.90
2018-08-10T09:00:02.895Z,1.57
2018-08-10T09:02:30.205Z,2.30
2018-08-10T09:05:00.280Z,2.33
2018-08-10T09:07:28.354Z,1.87
2018-08-10T09:09:56.070Z,2.30
2018-08-10T09:12:23.441Z,1.43
2018-08-10T09:14:53.205Z,1.60
2018-08-10T09:17:20.575Z,3.43
2018-08-10T09:19:47.786Z,2.70
2018-08-10T09:22:15.048Z,2.20
2018-08-10T09:24:42.576Z,1.67
2018-08-10T09:27:09.869Z,4.23
2018-08-10T09:29:37.198Z,1.80
2018-08-10T09:32:05.840Z,3.83
2018-08-10T09:34:33.204Z,2.00
2018-08-10T09:37:01.499Z,1.87
2018-08-10T09:39:29.175Z,1.63
2018-08-10T09:41:57.273Z,2.13
2018-08-10T09:44:24.572Z,1.20
2018-08-10T09:46:52.064Z,2.30
2018-08-10T09:49:19.394Z,2.90
2018-08-10T09:51:46.678Z,2.70
2018-08-10T09:54:13.916Z,5.83
2018-08-10T09:56:41.280Z,1.80
2018-08-10T09:59:08.655Z,2.60
2018-08-10T10:01:41.757Z,5.70
2018-08-10T10:04:09.040Z,2.33
2018-08-10T10:06:36.396Z,5.03
2018-08-10T10:09:08.209Z,2.10
2018-08-10T10:11:35.396Z,1.83
2018-08-10T10:14:03.441Z,2.93
2018-08-10T10:16:30.912Z,3.70
2018-08-10T10:18:58.244Z,3.47
2018-08-10T10:21:25.492Z,2.33
2018-08-10T10:23:52.715Z,3.13
2018-08-10T10:26:20.021Z,5.17
2018-08-10T10:28:47.268Z,1.83
2018-08-10T10:31:14.599Z,2.20
2018-08-10T10:33:41.981Z,2.17
2018-08-10T10:36:09.794Z,3.53
2018-08-10T10:38:37.061Z,2.17
2018-08-10T10:41:04.436Z,2.83
2018-08-10T10:43:31.734Z,2.87
2018-08-10T10:45:59.043Z,1.63
2018-08-10T10:48:26.336Z,4.13
2018-08-10T10:50:53.664Z,2.20
2018-08-10T10:53:20.928Z,2.00
2018-08-10T10:55:48.220Z,2.10
2018-08-10T10:58:15.519Z,1.93
2018-08-10T11:00:42.785Z,4.40
2018-08-10T11:03:10.621Z,2.23
2018-08-10T11:05:37.965Z,2.10
2018-08-10T11:08:05.557Z,2.30
2018-08-10T11:10:32.808Z,1.53
2018-08-10T11:13:00.321Z,4.17
2018-08-10T11:15:27.736Z,2.07
2018-08-10T11:17:55.211Z,4.10
2018-08-10T11:20:22.589Z,4.13
2018-08-10T11:22:49.872Z,1.90
2018-08-10T11:25:17.273Z,1.53
2018-08-10T11:27:45.037Z,3.43
2018-08-10T11:30:12.438Z,2.57
2018-08-10T11:32:39.717Z,3.00
2018-08-10T11:35:07.556Z,4.00
2018-08-10T11:37:34.964Z,1.70
2018-08-10T11:40:02.515Z,1.70
2018-08-10T11:42:30.169Z,2.10
2018-08-10T11:44:57.550Z,4.90
2018-08-10T11:47:24.872Z,2.70
2018-08-10T11:49:52.139Z,1.57
2018-08-10T11:52:19.572Z,2.60
2018-08-10T11:54:46.838Z,2.40
2018-08-10T11:57:14.199Z,2.27
2018-08-10T11:59:41.444Z,2.80
2018-08-10T12:02:09.239Z,2.90
2018-08-10T12:04:36.520Z,1.90
2018-08-10T12:07:03.957Z,2.03
2018-08-10T12:09:31.224Z,2.43
2018-08-10T12:11:58.640Z,37.13
2018-08-10T12:14:25.921Z,19.73
2018-08-10T12:16:53.184Z,48.37
2018-08-10T12:19:20.457Z,28.83
2018-08-10T12:21:47.704Z,10.40
2018-08-10T12:24:14.957Z,2.50
2018-08-10T12:26:42.232Z,21.13
2018-08-10T12:29:09.495Z,20.53
2018-08-10T12:31:36.759Z,8.10
2018-08-10T12:34:04.069Z,4.83
2018-08-10T12:36:31.371Z,8.33
2018-08-10T12:38:58.836Z,8.87
2018-08-10T12:41:26.109Z,5.57
2018-08-10T12:43:53.349Z,1.70
2018-08-10T12:46:20.644Z,4.70
2018-08-10T12:48:47.916Z,3.90
2018-08-10T12:51:15.240Z,104.27
2018-08-10T12:53:42.753Z,141.43
2018-08-10T12:56:10.392Z,44.90
2018-08-10T12:58:37.755Z,20.17
2018-08-10T13:01:05.053Z,17.87
2018-08-10T13:03:32.397Z,8.03
2018-08-10T13:05:59.725Z,5.73
2018-08-10T13:08:27.061Z,3.17
2018-08-10T13:10:54.421Z,5.40
2018-08-10T13:13:21.821Z,1.93
2018-08-10T13:15:49.094Z,2.90
2018-08-10T13:18:16.386Z,4.13
2018-08-10T13:20:43.701Z,2.93
2018-08-10T13:23:11.510Z,2.90
2018-08-10T13:25:38.876Z,3.30
2018-08-10T13:28:06.643Z,2.73
2018-08-10T13:30:33.877Z,1.80
2018-08-10T13:33:01.156Z,2.40
2018-08-10T13:35:28.484Z,3.10
2018-08-10T13:37:55.723Z,1.70
2018-08-10T13:40:22.999Z,1.70
2018-08-10T13:42:50.316Z,1.57
2018-08-10T13:45:17.620Z,2.00
2018-08-10T13:47:44.913Z,2.00
2018-08-10T13:50:14.172Z,2.00
2018-08-10T13:52:41.607Z,1.80
2018-08-10T13:55:11.313Z,1.63
2018-08-10T13:57:38.623Z,1.60
2018-08-10T14:00:05.968Z,1.30
2018-08-10T14:02:33.248Z,2.80
2018-08-10T14:05:00.587Z,1.53
2018-08-10T14:07:27.904Z,2.10
2018-08-10T14:09:55.140Z,1.50
2018-08-10T14:12:22.413Z,3.57
2018-08-10T14:14:49.667Z,1.40
2018-08-10T14:17:17.078Z,1.90
2018-08-10T14:19:44.328Z,1.50
2018-08-10T14:22:11.581Z,3.60
2018-08-10T14:24:38.905Z,1.40
2018-08-10T14:27:06.200Z,2.20
2018-08-10T14:29:33.460Z,2.00
2018-08-10T14:32:00.703Z,3.97
2018-08-10T14:34:27.997Z,1.43
2018-08-10T14:36:55.284Z,1.70
2018-08-10T14:39:22.557Z,3.57
2018-08-10T14:41:49.800Z,2.17
2018-08-10T14:44:17.069Z,3.43
2018-08-10T14:46:44.328Z,2.10
2018-08-10T14:49:11.628Z,1.93
2018-08-10T14:51:38.903Z,1.80
2018-08-10T14:54:06.284Z,1.87
2018-08-10T14:56:33.576Z,2.30
2018-08-10T14:59:00.872Z,3.40
2018-08-10T15:01:28.276Z,3.43
2018-08-10T15:03:55.528Z,1.90
2018-08-10T15:06:22.780Z,2.20
2018-08-10T15:08:50.072Z,4.30
2018-08-10T15:11:17.296Z,2.00
2018-08-10T15:13:44.620Z,14.27
2018-08-10T15:16:11.947Z,6.70
2018-08-10T15:18:39.221Z,5.90
2018-08-10T15:21:07.225Z,1.80
2018-08-10T15:23:34.499Z,1.97
2018-08-10T15:26:01.845Z,1.50
2018-08-10T15:28:29.092Z,2.37
2018-08-10T15:30:56.480Z,1.67
2018-08-10T15:33:23.924Z,2.07
2018-08-10T15:35:51.172Z,1.90
2018-08-10T15:38:18.598Z,1.73
2018-08-10T15:40:45.881Z,2.27
2018-08-10T15:43:13.173Z,3.57
2018-08-10T15:45:40.469Z,3.90
2018-08-10T15:48:08.136Z,2.30
2018-08-10T15:50:35.349Z,1.70
2018-08-10T15:53:03.420Z,3.40
2018-08-10T15:55:30.731Z,4.90
2018-08-10T15:57:58.101Z,1.60
2018-08-10T16:00:25.688Z,2.47
2018-08-10T16:02:53.849Z,1.80
2018-08-10T16:05:21.189Z,2.40
2018-08-10T16:07:48.523Z,2.50
2018-08-10T16:10:15.884Z,1.67
2018-08-10T16:12:43.228Z,3.87
2018-08-10T16:15:11.756Z,2.80
2018-08-10T16:17:39.084Z,2.70
2018-08-10T16:20:08.234Z,1.97
2018-08-10T16:22:35.604Z,3.47
2018-08-10T16:25:03.509Z,2.97
2018-08-10T16:27:30.820Z,3.60
2018-08-10T16:29:58.117Z,2.20
2018-08-10T16:32:25.445Z,1.70
2018-08-10T16:34:52.738Z,2.13
2018-08-10T16:37:19.973Z,1.83
2018-08-10T16:39:47.224Z,2.60
2018-08-10T16:42:14.493Z,2.17
2018-08-10T16:44:41.726Z,2.53
2018-08-10T16:47:08.996Z,1.50
2018-08-10T16:49:36.280Z,1.93
2018-08-10T16:52:03.860Z,2.57
2018-08-10T16:54:31.104Z,3.13
2018-08-10T16:56:58.415Z,2.10
2018-08-10T16:59:25.644Z,1.73
2018-08-10T17:01:52.914Z,2.03
2018-08-10T17:04:20.232Z,1.90
2018-08-10T17:06:47.524Z,1.83
2018-08-10T17:09:14.769Z,2.57
2018-08-10T17:11:42.040Z,2.23
2018-08-10T17:14:09.280Z,2.23
2018-08-10T17:16:36.624Z,1.50
2018-08-10T17:19:03.904Z,1.20
2018-08-10T17:21:31.341Z,3.73
2018-08-10T17:23:58.629Z,1.93
2018-08-10T17:26:25.913Z,2.20
2018-08-10T17:28:53.132Z,2.13
2018-08-10T17:31:20.408Z,2.77
2018-08-10T17:33:47.643Z,2.00
2018-08-10T17:36:14.916Z,1.47
2018-08-10T17:38:42.192Z,1.90
2018-08-10T17:41:09.480Z,1.80
2018-08-10T17:43:36.777Z,2.20
2018-08-10T17:46:04.111Z,1.20
2018-08-10T17:48:31.395Z,1.90
2018-08-10T17:50:58.634Z,1.47
2018-08-10T17:53:25.887Z,1.60
2018-08-10T17:55:53.129Z,5.90
2018-08-10T17:58:20.372Z,3.23
2018-08-10T18:00:47.656Z,2.70
2018-08-10T18:03:14.944Z,2.30
2018-08-10T18:05:42.204Z,2.20
2018-08-10T18:08:09.611Z,2.53
2018-08-10T18:10:37.287Z,1.70
2018-08-10T18:13:04.660Z,1.43
2018-08-10T18:15:31.928Z,2.27
2018-08-10T18:17:59.517Z,2.57
2018-08-10T18:20:26.748Z,1.50
2018-08-10T18:22:54.432Z,1.60
2018-08-10T18:25:22.133Z,1.93
2018-08-10T18:27:49.444Z,2.93
2018-08-10T18:30:19.926Z,1.90
2018-08-10T18:32:47.542Z,1.73
2018-08-10T18:35:14.840Z,4.90
2018-08-10T18:37:43.035Z,2.63
2018-08-10T18:40:12.421Z,8.77
2018-08-10T18:42:40.803Z,3.87
2018-08-10T18:45:09.197Z,1.90
2018-08-10T18:47:37.101Z,1.60
2018-08-10T18:50:05.097Z,2.37
2018-08-10T18:52:32.383Z,2.07
2018-08-10T18:55:00.049Z,2.57
2018-08-10T18:57:27.291Z,3.00
2018-08-10T18:59:55.045Z,3.20
2018-08-10T19:02:22.301Z,3.17
2018-08-10T19:04:49.559Z,1.80
2018-08-10T19:07:16.832Z,2.30
2018-08-10T19:09:44.085Z,5.63
2018-08-10T19:12:11.485Z,2.33
2018-08-10T19:14:38.707Z,2.57
2018-08-10T19:17:06.406Z,2.13
2018-08-10T19:19:33.746Z,2.73
2018-08-10T19:22:01.063Z,3.60
2018-08-10T19:24:28.784Z,1.93
2018-08-10T19:26:56.213Z,5.80
2018-08-10T19:29:23.524Z,1.87
2018-08-10T19:31:50.729Z,5.13
2018-08-10T19:34:18.117Z,3.17
2018-08-10T19:36:45.402Z,2.93
2018-08-10T19:39:12.999Z,1.90
2018-08-10T19:41:40.394Z,3.93
2018-08-10T19:44:07.712Z,2.00
2018-08-10T19:46:35.216Z,2.90
2018-08-10T19:49:02.615Z,2.47
2018-08-10T19:51:30.078Z,2.30
2018-08-10T19:53:57.396Z,2.60
2018-08-10T19:56:24.715Z,3.13
2018-08-10T19:58:52.117Z,8.23
2018-08-10T20:01:19.348Z,1.83
2018-08-10T20:03:47.412Z,2.77
2018-08-10T20:06:14.647Z,2.10
2018-08-10T20:08:42.186Z,1.87
2018-08-10T20:11:09.493Z,5.03
2018-08-10T20:13:36.840Z,3.10
2018-08-10T20:16:04.259Z,4.40
2018-08-10T20:18:31.657Z,2.23
2018-08-10T20:20:58.997Z,3.00
2018-08-10T20:23:26.435Z,4.60
2018-08-10T20:25:53.748Z,2.47
2018-08-10T20:28:21.055Z,2.97
2018-08-10T20:30:48.267Z,3.87
2018-08-10T20:33:15.520Z,6.30
2018-08-10T20:35:42.801Z,2.27
2018-08-10T20:38:10.434Z,3.43
2018-08-10T20:40:38.565Z,5.60
2018-08-10T20:43:05.888Z,3.50
2018-08-10T20:45:33.382Z,4.80
2018-08-10T20:48:00.592Z,2.83
2018-08-10T20:50:28.312Z,4.40
2018-08-10T20:52:55.648Z,2.87
2018-08-10T20:55:23.010Z,5.93
2018-08-10T20:57:50.616Z,2.70
2018-08-10T21:00:17.856Z,1.70
2018-08-10T21:02:45.685Z,2.60
2018-08-10T21:05:13.442Z,2.50
2018-08-10T21:07:40.854Z,2.13
2018-08-10T21:10:11.102Z,2.73
2018-08-10T21:12:39.036Z,3.93
2018-08-10T21:15:07.640Z,2.20
2018-08-10T21:17:35.096Z,2.10
2018-08-10T21:20:02.472Z,5.00
2018-08-10T21:22:29.773Z,3.87
2018-08-10T21:24:57.096Z,2.97
2018-08-10T21:27:24.381Z,2.77
2018-08-10T21:29:51.741Z,3.47
2018-08-10T21:32:18.972Z,2.13
2018-08-10T21:34:46.304Z,2.33
2018-08-10T21:37:13.572Z,2.07
2018-08-10T21:39:40.934Z,1.50
2018-08-10T21:42:08.225Z,2.03
2018-08-10T21:44:35.537Z,3.70
2018-08-10T21:47:02.852Z,2.13
2018-08-10T21:49:30.204Z,3.83
2018-08-10T21:51:57.503Z,2.23
2018-08-10T21:54:24.812Z,2.53
2018-08-10T21:56:52.117Z,2.20
2018-08-10T21:59:19.392Z,5.10
2018-08-10T22:01:46.645Z,2.30
2018-08-10T22:04:13.932Z,4.63
2018-08-10T22:06:41.333Z,2.17
2018-08-10T22:09:08.599Z,2.20
2018-08-10T22:11:36.089Z,4.77
2018-08-10T22:14:09.043Z,6.23
2018-08-10T22:16:41.953Z,3.33
2018-08-10T22:19:15.017Z,2.83
2018-08-10T22:21:43.389Z,3.90
2018-08-10T22:24:10.728Z,3.20
2018-08-10T22:26:38.052Z,3.13
2018-08-10T22:29:05.368Z,6.63
2018-08-10T22:31:32.831Z,2.47
2018-08-10T22:34:00.333Z,2.50
2018-08-10T22:36:27.724Z,5.20
2018-08-10T22:38:55.076Z,2.10
2018-08-10T22:41:22.316Z,3.10
2018-08-10T22:43:49.614Z,5.20
2018-08-10T22:46:16.848Z,2.13
2018-08-10T22:48:44.116Z,3.40
2018-08-10T22:51:11.418Z,5.60
2018-08-10T22:53:38.724Z,2.63
2018-08-10T22:56:06.193Z,2.33
2018-08-10T22:58:33.564Z,2.63
2018-08-10T23:01:00.853Z,2.20
2018-08-10T23:03:28.200Z,2.47
2018-08-10T23:05:55.593Z,2.13
2018-08-10T23:08:22.904Z,2.97
2018-08-10T23:10:50.112Z,2.07
2018-08-10T23:13:17.449Z,4.87
2018-08-10T23:15:44.699Z,2.37
2018-08-10T23:18:12.108Z,2.40
2018-08-10T23:20:39.589Z,4.80
2018-08-10T23:23:06.941Z,2.17
2018-08-10T23:25:34.320Z,3.17
2018-08-10T23:28:01.646Z,2.37
2018-08-10T23:30:28.990Z,2.90
2018-08-10T23:32:56.272Z,3.17
2018-08-10T23:35:23.668Z,2.07
2018-08-10T23:37:51.048Z,4.73
2018-08-10T23:40:18.316Z,2.43
2018-08-10T23:42:45.560Z,3.07
2018-08-10T23:45:13.816Z,2.77
2018-08-10T23:47:41.771Z,2.30
2018-08-10T23:50:14.456Z,5.17
2018-08-10T23:52:42.127Z,2.33
2018-08-10T23:55:09.875Z,2.53
2018-08-10T23:57:38.512Z,3.20
